Ludlam, Florida
Current Conditions -  °F | °C
As of 10:53 AM on Thursday 23 Oct 2014 (Local Time) from KMIA Reporting Station
Overcast Overcast  
Wind Chill: 75°   Ceiling: 2300
Heat Index: 75°   Visibility: 10mi
Dew Point: 71°   Wind: 8mph
Humidity: 87%   Direction: 40°NE
Pressure: 29.95"   Gusts: NA
Location:  25.7539°N, 80.2512°W
Report Text: KMIA 231453Z 04007KT 10SM FEW005 BKN023CB BKN090 OVC140 24/22 A2995 RMK AO2 SLP141 CB NW-N MOV W 60001 T02390217 51013
Loading
Personal Weather Stations






























Interactive Weather Map
Tropical Storm Tracking
New forecast layout! Learn more

10-Day Weather Forecast

Advertisements
Track Severe Weather on mobile